Time;durP1;ratioP1;P1;durP2;ratioP2;P2;SDS_P1;SDS_P2;PMS_P1;PMS_P2;Temp;Humidity;BMP_temperature;BMP_pressure;BME280_temperature;BME280_humidity;BME280_pressure;Samples;Min_cycle;Max_cycle;Signal;HPM_P1;HPM_P2
2023/02/28 00:00:16;;;;;;;0.90;0.90;;;;;;;;;;6186961;28;20300;-80
2023/02/28 00:03:21;;;;;;;1.10;1.10;;;;;;;;;;6177502;28;20300;-79
2023/02/28 00:06:27;;;;;;;1.10;1.10;;;;;;;;;;6162050;29;20302;-79
2023/02/28 00:09:33;;;;;;;1.00;1.00;;;;;;;;;;6162404;28;20446;-78
2023/02/28 00:12:39;;;;;;;1.00;1.00;;;;;;;;;;6162312;28;20304;-78
2023/02/28 00:15:45;;;;;;;1.00;1.00;;;;;;;;;;6163084;28;20579;-78
2023/02/28 00:18:50;;;;;;;1.07;1.07;;;;;;;;;;6162481;28;20423;-79
2023/02/28 00:21:56;;;;;;;1.23;1.23;;;;;;;;;;6161509;29;20302;-79
2023/02/28 00:25:03;;;;;;;0.93;0.93;;;;;;;;;;6162587;28;20294;-78
2023/02/28 00:28:10;;;;;;;1.07;1.07;;;;;;;;;;6177520;28;20486;-79
2023/02/28 00:31:16;;;;;;;0.90;0.90;;;;;;;;;;6162425;28;20298;-79
2023/02/28 00:34:21;;;;;;;1.00;1.00;;;;;;;;;;6152984;29;20302;-80
2023/02/28 00:37:26;;;;;;;1.17;1.17;;;;;;;;;;6175874;28;20273;-79
2023/02/28 00:40:32;;;;;;;1.00;1.00;;;;;;;;;;6163978;28;20275;-79
2023/02/28 00:43:39;;;;;;;2.73;0.83;;;;;;;;;;6152586;28;20293;-80
2023/02/28 00:46:44;;;;;;;1.00;1.00;;;;;;;;;;6140720;28;20309;-78
2023/02/28 00:49:50;;;;;;;1.03;1.03;;;;;;;;;;6174884;28;20312;-79
2023/02/28 00:52:55;;;;;;;1.00;1.00;;;;;;;;;;6164177;28;20330;-79
2023/02/28 00:56:02;;;;;;;1.40;0.80;;;;;;;;;;6161892;28;20292;-79
2023/02/28 00:59:07;;;;;;;1.20;1.20;;;;;;;;;;6159719;28;20590;-79
2023/02/28 01:02:12;;;;;;;0.90;0.90;;;;;;;;;;6173235;28;20305;-78
2023/02/28 01:05:17;;;;;;;1.40;0.97;;;;;;;;;;6184696;28;20298;-79
2023/02/28 01:08:23;;;;;;;0.90;0.90;;;;;;;;;;6184776;28;20289;-79
2023/02/28 01:11:29;;;;;;;0.90;0.90;;;;;;;;;;6168674;28;20301;-78
2023/02/28 01:14:35;;;;;;;1.00;1.00;;;;;;;;;;6184967;28;20306;-79
2023/02/28 01:17:41;;;;;;;1.00;1.00;;;;;;;;;;6183900;28;20554;-78
2023/02/28 01:20:47;;;;;;;0.90;0.90;;;;;;;;;;6185859;28;20607;-79
2023/02/28 01:23:53;;;;;;;0.97;0.97;;;;;;;;;;6184718;28;20586;-79
2023/02/28 01:27:01;;;;;;;0.90;0.90;;;;;;;;;;6185315;28;20294;-78
2023/02/28 01:30:10;;;;;;;0.97;0.97;;;;;;;;;;6184752;28;20298;-79
2023/02/28 01:33:15;;;;;;;1.10;1.00;;;;;;;;;;6184538;28;20369;-79
2023/02/28 01:36:23;;;;;;;0.80;0.80;;;;;;;;;;6167932;28;20304;-79
2023/02/28 01:39:28;;;;;;;0.80;0.80;;;;;;;;;;6184254;28;20305;-80
2023/02/28 01:42:35;;;;;;;0.90;0.90;;;;;;;;;;6167269;28;20339;-79
2023/02/28 01:45:41;;;;;;;0.90;0.90;;;;;;;;;;6167644;28;20293;-79
2023/02/28 01:48:49;;;;;;;0.90;0.90;;;;;;;;;;6167613;28;20303;-78
2023/02/28 01:51:56;;;;;;;1.10;1.10;;;;;;;;;;6185143;28;20293;-79
2023/02/28 01:55:03;;;;;;;0.90;0.90;;;;;;;;;;6184853;28;20298;-78
2023/02/28 01:58:12;;;;;;;0.80;0.80;;;;;;;;;;6167658;28;20301;-78
2023/02/28 02:01:22;;;;;;;0.90;0.90;;;;;;;;;;6183243;28;20405;-79
2023/02/28 02:04:33;;;;;;;2.17;0.93;;;;;;;;;;6176356;28;20293;-78
2023/02/28 02:07:41;;;;;;;1.00;1.00;;;;;;;;;;6184014;28;20306;-79
2023/02/28 02:10:50;;;;;;;0.90;0.90;;;;;;;;;;6184455;28;20307;-78
2023/02/28 02:14:12;;;;;;;0.90;0.90;;;;;;;;;;6167217;28;20297;-78
2023/02/28 02:17:23;;;;;;;0.83;0.83;;;;;;;;;;6168924;28;20292;-79
2023/02/28 02:21:02;;;;;;;0.80;0.80;;;;;;;;;;6171514;28;20493;-79
2023/02/28 02:24:52;;;;;;;0.77;0.77;;;;;;;;;;6171620;28;20339;-78
2023/02/28 02:28:26;;;;;;;0.90;0.90;;;;;;;;;;6171831;28;20313;-79
2023/02/28 02:31:53;;;;;;;0.80;0.80;;;;;;;;;;6188488;28;20275;-80
2023/02/28 02:35:05;;;;;;;1.00;1.00;;;;;;;;;;6171305;28;20301;-80
2023/02/28 02:38:15;;;;;;;0.90;0.90;;;;;;;;;;6188662;28;20299;-78
2023/02/28 02:41:24;;;;;;;0.90;0.90;;;;;;;;;;6188863;28;20302;-78
2023/02/28 02:44:31;;;;;;;0.80;0.80;;;;;;;;;;6188349;28;20317;-78
2023/02/28 02:47:37;;;;;;;1.00;1.00;;;;;;;;;;6171288;28;20496;-79
2023/02/28 02:50:47;;;;;;;0.80;0.80;;;;;;;;;;6188705;28;20294;-78
2023/02/28 02:53:55;;;;;;;0.80;0.80;;;;;;;;;;6188011;28;20317;-80
2023/02/28 02:57:03;;;;;;;0.90;0.90;;;;;;;;;;6171530;28;20305;-79
2023/02/28 03:00:11;;;;;;;0.80;0.80;;;;;;;;;;6170772;28;20575;-79
2023/02/28 03:03:20;;;;;;;0.80;0.80;;;;;;;;;;6170054;28;20298;-79
2023/02/28 03:06:27;;;;;;;0.80;0.80;;;;;;;;;;6188298;28;20303;-79
2023/02/28 03:09:35;;;;;;;1.00;1.00;;;;;;;;;;6187814;28;20286;-79
2023/02/28 03:12:46;;;;;;;0.87;0.87;;;;;;;;;;6162999;28;20315;-79
2023/02/28 03:16:05;;;;;;;0.93;0.93;;;;;;;;;;6151603;29;20299;-78
2023/02/28 03:19:25;;;;;;;0.80;0.80;;;;;;;;;;6169462;28;20323;-79
2023/02/28 03:22:49;;;;;;;0.87;0.87;;;;;;;;;;6163194;28;20274;-79
2023/02/28 03:26:00;;;;;;;0.70;0.70;;;;;;;;;;6163498;28;20314;-79
2023/02/28 03:29:10;;;;;;;0.90;0.90;;;;;;;;;;6163482;28;20306;-78
2023/02/28 03:32:21;;;;;;;0.80;0.80;;;;;;;;;;6164176;28;20549;-79
2023/02/28 03:35:29;;;;;;;0.80;0.80;;;;;;;;;;6163122;28;20312;-79
2023/02/28 03:38:40;;;;;;;0.97;0.97;;;;;;;;;;6163067;28;20302;-79
2023/02/28 03:41:47;;;;;;;0.70;0.70;;;;;;;;;;6163191;28;20295;-79
2023/02/28 03:44:55;;;;;;;0.90;0.90;;;;;;;;;;6162822;28;20301;-79
2023/02/28 03:48:04;;;;;;;0.80;0.80;;;;;;;;;;6162968;28;20299;-78
2023/02/28 03:51:12;;;;;;;0.70;0.70;;;;;;;;;;6163444;28;20294;-80
2023/02/28 03:54:20;;;;;;;0.73;0.73;;;;;;;;;;6162621;28;20614;-79
2023/02/28 03:57:35;;;;;;;0.90;0.90;;;;;;;;;;6162434;28;20302;-80
2023/02/28 04:00:43;;;;;;;0.80;0.80;;;;;;;;;;6182849;28;20416;-78
2023/02/28 04:03:48;;;;;;;1.00;1.00;;;;;;;;;;6155330;28;20310;-78
2023/02/28 04:06:54;;;;;;;2.30;0.90;;;;;;;;;;6163070;29;20299;-79
2023/02/28 04:10:01;;;;;;;0.80;0.80;;;;;;;;;;6162441;28;20342;-79
2023/02/28 04:13:06;;;;;;;0.87;0.87;;;;;;;;;;6138724;29;20368;-78
2023/02/28 04:16:12;;;;;;;0.70;0.70;;;;;;;;;;6139289;29;20324;-79
2023/02/28 04:19:36;;;;;;;0.90;0.90;;;;;;;;;;6145759;28;20299;-79
2023/02/28 04:22:41;;;;;;;0.73;0.73;;;;;;;;;;6162584;29;20275;-78
2023/02/28 04:25:47;;;;;;;0.90;0.90;;;;;;;;;;6166571;28;20297;-79
2023/02/28 04:28:53;;;;;;;0.90;0.90;;;;;;;;;;6144580;28;20316;-79
2023/02/28 04:31:59;;;;;;;0.80;0.80;;;;;;;;;;6162676;29;20304;-79
2023/02/28 04:35:05;;;;;;;0.83;0.83;;;;;;;;;;6161408;28;20291;-79
2023/02/28 04:38:14;;;;;;;0.90;0.90;;;;;;;;;;6161839;28;20302;-79
2023/02/28 04:41:21;;;;;;;0.70;0.70;;;;;;;;;;6153004;28;20300;-80
2023/02/28 04:44:26;;;;;;;0.80;0.80;;;;;;;;;;6146920;28;20476;-79
2023/02/28 04:47:31;;;;;;;0.83;0.83;;;;;;;;;;6153091;29;20295;-78
2023/02/28 04:50:36;;;;;;;0.70;0.70;;;;;;;;;;6147813;28;20315;-79
2023/02/28 04:53:43;;;;;;;0.90;0.90;;;;;;;;;;6161612;28;20288;-80
2023/02/28 04:56:50;;;;;;;0.80;0.80;;;;;;;;;;6150824;29;20293;-79
2023/02/28 04:59:55;;;;;;;0.80;0.80;;;;;;;;;;6150131;28;20298;-80
2023/02/28 05:03:00;;;;;;;0.93;0.93;;;;;;;;;;6166941;28;20575;-79
2023/02/28 05:06:05;;;;;;;0.90;0.90;;;;;;;;;;6185735;28;20352;-79
2023/02/28 05:09:12;;;;;;;0.83;0.83;;;;;;;;;;6184692;28;20303;-79
2023/02/28 05:12:18;;;;;;;0.87;0.87;;;;;;;;;;6185431;28;20301;-79
2023/02/28 05:15:23;;;;;;;1.20;0.80;;;;;;;;;;6185078;28;20302;-79
2023/02/28 05:18:29;;;;;;;1.70;0.93;;;;;;;;;;6185186;28;20289;-79
2023/02/28 05:21:36;;;;;;;0.90;0.90;;;;;;;;;;6185399;28;20582;-79
2023/02/28 05:24:42;;;;;;;0.80;0.80;;;;;;;;;;6184862;28;20305;-79
2023/02/28 05:27:49;;;;;;;0.80;0.80;;;;;;;;;;6185243;28;20297;-79
2023/02/28 05:30:54;;;;;;;3.10;1.00;;;;;;;;;;6167178;28;20292;-80
2023/02/28 05:33:59;;;;;;;0.90;0.90;;;;;;;;;;6184719;28;20298;-79
2023/02/28 05:37:05;;;;;;;0.80;0.80;;;;;;;;;;6185244;28;20309;-79
2023/02/28 05:40:12;;;;;;;0.90;0.90;;;;;;;;;;6184697;28;20312;-79
2023/02/28 05:43:19;;;;;;;0.90;0.90;;;;;;;;;;6184722;28;20292;-80
2023/02/28 05:46:26;;;;;;;4.03;0.90;;;;;;;;;;6184121;28;20284;-79
2023/02/28 05:49:31;;;;;;;0.90;0.90;;;;;;;;;;6184346;28;20308;-80
2023/02/28 05:52:37;;;;;;;0.80;0.80;;;;;;;;;;6185198;28;20382;-79
2023/02/28 05:55:42;;;;;;;0.80;0.80;;;;;;;;;;6163130;28;20559;-78
2023/02/28 05:58:48;;;;;;;1.00;1.00;;;;;;;;;;6189451;28;20295;-79
2023/02/28 06:01:55;;;;;;;1.07;1.07;;;;;;;;;;6189632;28;20306;-80
2023/02/28 06:05:00;;;;;;;0.93;0.93;;;;;;;;;;6189452;28;20590;-80
2023/02/28 06:08:07;;;;;;;0.73;0.73;;;;;;;;;;6189304;28;20310;-79
2023/02/28 06:11:12;;;;;;;0.73;0.73;;;;;;;;;;6188786;28;20294;-79
2023/02/28 06:14:20;;;;;;;0.90;0.90;;;;;;;;;;6188069;28;20296;-80
2023/02/28 06:17:25;;;;;;;1.10;1.10;;;;;;;;;;6189720;28;20305;-79
2023/02/28 06:20:31;;;;;;;0.80;0.80;;;;;;;;;;6171473;28;20291;-79
2023/02/28 06:23:35;;;;;;;0.70;0.70;;;;;;;;;;6188521;28;20468;-79
2023/02/28 06:26:42;;;;;;;0.80;0.80;;;;;;;;;;6189406;28;20433;-79
2023/02/28 06:29:48;;;;;;;1.00;1.00;;;;;;;;;;6188657;28;20309;-79
2023/02/28 06:32:55;;;;;;;0.80;0.80;;;;;;;;;;6188872;28;20576;-78
2023/02/28 06:36:00;;;;;;;0.90;0.90;;;;;;;;;;6189399;28;20306;-79
2023/02/28 06:39:05;;;;;;;0.90;0.90;;;;;;;;;;6189437;28;20297;-79
2023/02/28 06:42:11;;;;;;;0.80;0.80;;;;;;;;;;6187891;28;20578;-79
2023/02/28 06:45:18;;;;;;;1.03;1.00;;;;;;;;;;6188379;28;20302;-79
2023/02/28 06:48:23;;;;;;;0.90;0.90;;;;;;;;;;6188712;28;20294;-79
2023/02/28 06:51:28;;;;;;;1.00;1.00;;;;;;;;;;6188781;28;20313;-80
2023/02/28 06:54:34;;;;;;;0.80;0.80;;;;;;;;;;6171690;28;20295;-80
2023/02/28 06:57:39;;;;;;;1.00;1.00;;;;;;;;;;6188567;28;20293;-80
2023/02/28 07:00:46;;;;;;;0.80;0.80;;;;;;;;;;6169659;28;20297;-80
2023/02/28 07:03:52;;;;;;;0.70;0.70;;;;;;;;;;6139921;29;20460;-80
2023/02/28 07:06:57;;;;;;;0.80;0.80;;;;;;;;;;6140652;29;20350;-78
2023/02/28 07:10:02;;;;;;;0.80;0.80;;;;;;;;;;6140394;29;20302;-80
2023/02/28 07:13:08;;;;;;;0.90;0.90;;;;;;;;;;6140208;29;20336;-79
2023/02/28 07:16:16;;;;;;;0.80;0.80;;;;;;;;;;6140509;29;20292;-79
2023/02/28 07:19:21;;;;;;;0.87;0.87;;;;;;;;;;6140106;29;20484;-79
2023/02/28 07:22:26;;;;;;;1.07;0.90;;;;;;;;;;6138931;29;20282;-81
2023/02/28 07:25:33;;;;;;;0.80;0.80;;;;;;;;;;6140286;29;20301;-79
2023/02/28 07:28:39;;;;;;;0.80;0.80;;;;;;;;;;6139873;28;20295;-79
2023/02/28 07:31:46;;;;;;;2.30;0.73;;;;;;;;;;6140773;29;20292;-78
2023/02/28 07:34:51;;;;;;;1.33;0.83;;;;;;;;;;6140113;28;20294;-79
2023/02/28 07:37:58;;;;;;;0.77;0.77;;;;;;;;;;6140131;29;20303;-78
2023/02/28 07:41:05;;;;;;;0.83;0.80;;;;;;;;;;6139674;28;20493;-79
2023/02/28 07:44:10;;;;;;;3.30;0.93;;;;;;;;;;6139973;29;20307;-79
2023/02/28 07:47:17;;;;;;;0.70;0.70;;;;;;;;;;6138927;29;20304;-80
2023/02/28 07:50:23;;;;;;;0.70;0.70;;;;;;;;;;6139682;29;20306;-79
2023/02/28 07:53:31;;;;;;;0.73;0.73;;;;;;;;;;6154228;28;20294;-80
2023/02/28 07:56:36;;;;;;;0.70;0.70;;;;;;;;;;6140523;29;20463;-79
2023/02/28 07:59:41;;;;;;;0.70;0.70;;;;;;;;;;6139719;28;20301;-78
2023/02/28 08:02:51;;;;;;;0.90;0.90;;;;;;;;;;6141356;29;20315;-80
2023/02/28 08:05:56;;;;;;;3.00;0.90;;;;;;;;;;6178003;28;20299;-79
2023/02/28 08:09:01;;;;;;;0.60;0.60;;;;;;;;;;6162908;28;20429;-79
2023/02/28 08:12:07;;;;;;;0.70;0.70;;;;;;;;;;6163291;28;20305;-78
2023/02/28 08:15:12;;;;;;;0.80;0.80;;;;;;;;;;6162008;28;20298;-80
2023/02/28 08:18:19;;;;;;;0.80;0.80;;;;;;;;;;6162455;28;20624;-79
2023/02/28 08:21:24;;;;;;;0.80;0.80;;;;;;;;;;6162964;28;20307;-79
2023/02/28 08:24:30;;;;;;;0.90;0.90;;;;;;;;;;6162186;28;20598;-80
2023/02/28 08:27:37;;;;;;;0.80;0.80;;;;;;;;;;6177475;28;20298;-80
2023/02/28 08:30:42;;;;;;;0.90;0.90;;;;;;;;;;6177350;28;20302;-79
2023/02/28 08:33:50;;;;;;;1.40;0.80;;;;;;;;;;6162863;28;20480;-79
2023/02/28 08:36:56;;;;;;;0.80;0.80;;;;;;;;;;6162704;28;20293;-79
2023/02/28 08:40:01;;;;;;;1.43;1.00;;;;;;;;;;6161851;28;20386;-79
2023/02/28 08:43:07;;;;;;;0.80;0.73;;;;;;;;;;6176398;28;20294;-79
2023/02/28 08:46:14;;;;;;;0.87;0.70;;;;;;;;;;6162480;28;20598;-79
2023/02/28 08:49:21;;;;;;;0.87;0.80;;;;;;;;;;6162329;28;20305;-79
2023/02/28 08:52:26;;;;;;;0.87;0.87;;;;;;;;;;6160772;28;20297;-79
2023/02/28 08:55:31;;;;;;;1.17;0.97;;;;;;;;;;6176987;28;20325;-79
2023/02/28 08:58:37;;;;;;;1.00;1.00;;;;;;;;;;6161776;28;20552;-79
2023/02/28 09:01:43;;;;;;;1.43;1.00;;;;;;;;;;6183802;28;20495;-78
2023/02/28 09:04:49;;;;;;;1.10;0.97;;;;;;;;;;6184951;28;20296;-79
2023/02/28 09:07:56;;;;;;;0.80;0.80;;;;;;;;;;6185571;28;20382;-79
2023/02/28 09:11:02;;;;;;;0.80;0.80;;;;;;;;;;6168583;28;20579;-80
2023/02/28 09:14:08;;;;;;;5.33;0.87;;;;;;;;;;6185452;28;20301;-79
2023/02/28 09:17:13;;;;;;;0.77;0.77;;;;;;;;;;6185607;28;20298;-79
2023/02/28 09:20:20;;;;;;;2.73;0.60;;;;;;;;;;6168405;28;20379;-78
2023/02/28 09:23:25;;;;;;;0.80;0.80;;;;;;;;;;6185018;28;20294;-79
2023/02/28 09:26:30;;;;;;;0.80;0.80;;;;;;;;;;6185016;28;20289;-80
2023/02/28 09:29:47;;;;;;;0.60;0.60;;;;;;;;;;6184897;28;20297;-79
2023/02/28 09:32:53;;;;;;;2.33;0.80;;;;;;;;;;6184699;28;20316;-79
2023/02/28 09:36:03;;;;;;;1.60;0.73;;;;;;;;;;6185743;28;20305;-79
2023/02/28 09:39:09;;;;;;;0.90;0.90;;;;;;;;;;6185560;28;20317;-79
2023/02/28 09:42:23;;;;;;;1.73;1.20;;;;;;;;;;6185612;28;20298;-78
2023/02/28 09:45:32;;;;;;;1.60;1.60;;;;;;;;;;6185654;28;20307;-79
2023/02/28 09:48:42;;;;;;;1.00;1.00;;;;;;;;;;6184944;28;20286;-79
2023/02/28 09:51:54;;;;;;;0.90;0.90;;;;;;;;;;6168343;28;20598;-79
2023/02/28 09:55:22;;;;;;;0.80;0.80;;;;;;;;;;6184418;28;20489;-79
2023/02/28 09:58:33;;;;;;;1.40;1.40;;;;;;;;;;6184067;28;20291;-79
2023/02/28 10:01:43;;;;;;;0.80;0.80;;;;;;;;;;6184318;28;20298;-79
2023/02/28 10:04:54;;;;;;;1.07;1.07;;;;;;;;;;6184660;28;20297;-79
2023/02/28 10:08:08;;;;;;;1.00;0.97;;;;;;;;;;6184300;28;20364;-79
2023/02/28 10:11:16;;;;;;;1.07;1.07;;;;;;;;;;6184496;28;20404;-79
2023/02/28 10:14:23;;;;;;;1.10;1.10;;;;;;;;;;6184092;28;20300;-80
2023/02/28 10:17:36;;;;;;;1.50;1.50;;;;;;;;;;6184553;28;20300;-78
2023/02/28 10:21:00;;;;;;;0.80;0.80;;;;;;;;;;6184634;28;20290;-80
2023/02/28 10:24:17;;;;;;;1.23;1.17;;;;;;;;;;6184415;28;20303;-80
2023/02/28 10:27:24;;;;;;;1.13;0.90;;;;;;;;;;6184896;28;20299;-80
2023/02/28 10:30:30;;;;;;;0.97;0.97;;;;;;;;;;6167186;28;20303;-80
2023/02/28 10:33:36;;;;;;;1.13;1.10;;;;;;;;;;6166871;28;20299;-80
2023/02/28 10:36:43;;;;;;;0.80;0.80;;;;;;;;;;6167857;28;20304;-80
2023/02/28 10:39:50;;;;;;;0.80;0.80;;;;;;;;;;6187785;28;20305;-80
2023/02/28 10:43:00;;;;;;;1.00;1.00;;;;;;;;;;6171379;28;20300;-79
2023/02/28 10:46:14;;;;;;;1.00;1.00;;;;;;;;;;6189123;28;20296;-79
2023/02/28 10:49:22;;;;;;;1.00;1.00;;;;;;;;;;6188386;28;20383;-79
2023/02/28 10:52:40;;;;;;;0.77;0.77;;;;;;;;;;6187631;28;20292;-80
2023/02/28 10:55:46;;;;;;;0.90;0.90;;;;;;;;;;6188529;28;20290;-81
2023/02/28 10:58:54;;;;;;;1.27;1.27;;;;;;;;;;6188177;28;20295;-80
2023/02/28 11:02:00;;;;;;;2.47;1.67;;;;;;;;;;6188697;28;20407;-79
2023/02/28 11:05:26;;;;;;;1.60;1.20;;;;;;;;;;6188212;28;20538;-81
2023/02/28 11:08:31;;;;;;;1.20;1.20;;;;;;;;;;6187981;28;20292;-79
2023/02/28 11:11:46;;;;;;;2.33;0.90;;;;;;;;;;6189967;28;20321;-80
2023/02/28 11:14:53;;;;;;;0.73;0.73;;;;;;;;;;6187766;28;20341;-80
2023/02/28 11:18:01;;;;;;;0.70;0.70;;;;;;;;;;6187807;28;20320;-80
2023/02/28 11:21:07;;;;;;;2.77;1.17;;;;;;;;;;6188123;28;20302;-80
2023/02/28 11:24:20;;;;;;;0.80;0.80;;;;;;;;;;6188338;28;20455;-80
2023/02/28 11:27:48;;;;;;;2.00;1.00;;;;;;;;;;6188563;28;20316;-79
2023/02/28 11:31:03;;;;;;;0.90;0.90;;;;;;;;;;6186883;28;20300;-82
2023/02/28 11:34:27;;;;;;;2.20;0.80;;;;;;;;;;6187456;28;20332;-80
2023/02/28 11:37:33;;;;;;;0.80;0.80;;;;;;;;;;6187017;28;20459;-79
2023/02/28 11:40:45;;;;;;;1.13;1.03;;;;;;;;;;6187210;28;20296;-81
2023/02/28 11:44:01;;;;;;;0.70;0.70;;;;;;;;;;6187201;28;20361;-79
2023/02/28 11:47:13;;;;;;;2.53;1.03;;;;;;;;;;6187494;28;20302;-80
2023/02/28 11:50:28;;;;;;;0.70;0.70;;;;;;;;;;6186852;28;20290;-79
2023/02/28 11:54:00;;;;;;;1.07;1.07;;;;;;;;;;6186856;28;20291;-80
2023/02/28 11:57:19;;;;;;;1.80;0.90;;;;;;;;;;6187587;28;20528;-79
2023/02/28 12:00:42;;;;;;;0.80;0.80;;;;;;;;;;6186366;28;20298;-80
2023/02/28 12:03:54;;;;;;;0.80;0.80;;;;;;;;;;6186233;28;20313;-80
2023/02/28 12:07:04;;;;;;;0.70;0.70;;;;;;;;;;6187323;28;20489;-80
2023/02/28 12:10:19;;;;;;;1.17;0.67;;;;;;;;;;6186604;28;20289;-78
2023/02/28 12:13:30;;;;;;;0.70;0.70;;;;;;;;;;6168414;28;20488;-79
2023/02/28 12:16:47;;;;;;;1.07;0.67;;;;;;;;;;6187068;28;20281;-79
2023/02/28 12:20:00;;;;;;;4.33;1.00;;;;;;;;;;6186375;28;20297;-79
2023/02/28 12:23:23;;;;;;;0.90;0.90;;;;;;;;;;6184648;28;20292;-79
2023/02/28 12:26:36;;;;;;;0.70;0.70;;;;;;;;;;6186697;28;20302;-78
2023/02/28 12:29:47;;;;;;;0.70;0.70;;;;;;;;;;6185892;28;20384;-79
2023/02/28 12:32:56;;;;;;;1.60;0.90;;;;;;;;;;6168791;28;20469;-79
2023/02/28 12:36:04;;;;;;;1.10;1.00;;;;;;;;;;6189079;28;20301;-79
2023/02/28 12:39:14;;;;;;;4.80;0.87;;;;;;;;;;6186869;28;20314;-79
2023/02/28 12:42:23;;;;;;;0.90;0.90;;;;;;;;;;6186014;28;20595;-79
2023/02/28 12:45:37;;;;;;;3.90;1.00;;;;;;;;;;6168523;28;20330;-79
2023/02/28 12:48:47;;;;;;;1.37;0.90;;;;;;;;;;6188671;28;20380;-79
2023/02/28 12:51:53;;;;;;;0.90;0.90;;;;;;;;;;6185727;28;20290;-79
2023/02/28 12:55:04;;;;;;;0.60;0.60;;;;;;;;;;6185108;28;20297;-79
2023/02/28 12:58:14;;;;;;;2.77;0.80;;;;;;;;;;6185665;28;20293;-79
2023/02/28 13:01:44;;;;;;;2.00;0.50;;;;;;;;;;6185388;28;20302;-79
2023/02/28 13:05:21;;;;;;;0.70;0.70;;;;;;;;;;6181643;28;20294;-79
2023/02/28 13:08:42;;;;;;;0.97;0.90;;;;;;;;;;6166753;28;20289;-79
2023/02/28 13:11:49;;;;;;;0.90;0.90;;;;;;;;;;6178273;28;20288;-78
2023/02/28 13:15:06;;;;;;;0.90;0.90;;;;;;;;;;6184909;28;20301;-79
2023/02/28 13:18:31;;;;;;;0.70;0.70;;;;;;;;;;6183905;28;20288;-79
2023/02/28 13:21:44;;;;;;;0.80;0.80;;;;;;;;;;6185084;28;20297;-79
2023/02/28 13:24:51;;;;;;;0.70;0.70;;;;;;;;;;6185083;28;20317;-79
2023/02/28 13:28:00;;;;;;;1.50;0.70;;;;;;;;;;6186171;28;20329;-78
2023/02/28 13:31:06;;;;;;;1.70;0.80;;;;;;;;;;6187822;28;20310;-79
2023/02/28 13:34:17;;;;;;;0.90;0.90;;;;;;;;;;6187449;28;20301;-79
2023/02/28 13:37:38;;;;;;;1.23;0.83;;;;;;;;;;6186797;28;20306;-80
2023/02/28 13:40:43;;;;;;;1.27;0.70;;;;;;;;;;6167009;28;20314;-78
2023/02/28 13:44:05;;;;;;;1.27;0.90;;;;;;;;;;6184060;28;20456;-79
2023/02/28 13:47:31;;;;;;;2.13;0.90;;;;;;;;;;6185136;28;20309;-80
2023/02/28 13:50:37;;;;;;;1.10;0.77;;;;;;;;;;6167333;28;20309;-79
2023/02/28 13:53:58;;;;;;;4.37;1.10;;;;;;;;;;6185036;28;20293;-80
2023/02/28 13:57:14;;;;;;;0.90;0.90;;;;;;;;;;6185165;28;20312;-79
2023/02/28 14:00:29;;;;;;;1.33;1.30;;;;;;;;;;6184948;28;20305;-79
2023/02/28 14:03:47;;;;;;;1.73;1.10;;;;;;;;;;6166797;28;20613;-79
2023/02/28 14:06:53;;;;;;;3.20;1.20;;;;;;;;;;6185121;28;20352;-79
2023/02/28 14:10:05;;;;;;;2.87;1.40;;;;;;;;;;6183432;28;20605;-79
2023/02/28 14:13:30;;;;;;;1.63;1.60;;;;;;;;;;6185374;28;20302;-79
2023/02/28 14:16:41;;;;;;;0.80;0.80;;;;;;;;;;6188020;28;20461;-80
2023/02/28 14:19:49;;;;;;;1.17;0.90;;;;;;;;;;6171809;28;20302;-80
2023/02/28 14:23:03;;;;;;;1.50;0.80;;;;;;;;;;6187664;28;20594;-79
2023/02/28 14:26:20;;;;;;;0.90;0.90;;;;;;;;;;6189002;28;20301;-80
2023/02/28 14:29:37;;;;;;;3.43;0.90;;;;;;;;;;6188388;28;20297;-80
2023/02/28 14:32:47;;;;;;;0.97;0.97;;;;;;;;;;6172483;28;20301;-79
2023/02/28 14:36:03;;;;;;;0.90;0.90;;;;;;;;;;6187851;28;20305;-79
2023/02/28 14:39:12;;;;;;;0.93;0.93;;;;;;;;;;6171489;28;20302;-80
2023/02/28 14:42:31;;;;;;;1.10;0.83;;;;;;;;;;6188299;28;20305;-79
2023/02/28 14:45:37;;;;;;;1.37;0.90;;;;;;;;;;6171195;28;20305;-79
2023/02/28 14:48:42;;;;;;;2.03;1.10;;;;;;;;;;6187354;28;20296;-79
2023/02/28 14:51:48;;;;;;;1.13;1.13;;;;;;;;;;6189132;28;20308;-80
2023/02/28 14:54:55;;;;;;;1.10;1.00;;;;;;;;;;6171382;28;20354;-80
2023/02/28 14:58:06;;;;;;;1.53;1.30;;;;;;;;;;6171137;28;20297;-78
2023/02/28 15:01:12;;;;;;;1.00;1.00;;;;;;;;;;6187005;28;20317;-80
2023/02/28 15:04:24;;;;;;;2.00;1.10;;;;;;;;;;6188059;28;20570;-80
2023/02/28 15:07:30;;;;;;;1.80;0.80;;;;;;;;;;6187438;28;20274;-79
2023/02/28 15:10:35;;;;;;;2.17;1.20;;;;;;;;;;6171017;28;20478;-79
2023/02/28 15:13:44;;;;;;;2.27;1.10;;;;;;;;;;6187445;28;20300;-79
2023/02/28 15:16:54;;;;;;;1.20;1.07;;;;;;;;;;6172377;28;20293;-79
2023/02/28 15:19:59;;;;;;;1.63;1.40;;;;;;;;;;6187568;28;20302;-79
2023/02/28 15:23:04;;;;;;;4.73;1.27;;;;;;;;;;6187234;28;20293;-78
2023/02/28 15:26:13;;;;;;;1.10;1.10;;;;;;;;;;6187729;28;20305;-79
2023/02/28 15:29:22;;;;;;;1.00;1.00;;;;;;;;;;6187800;28;20297;-79
2023/02/28 15:32:29;;;;;;;3.37;2.00;;;;;;;;;;6187835;28;20302;-79
2023/02/28 15:35:35;;;;;;;3.83;2.40;;;;;;;;;;6187461;28;20301;-80
2023/02/28 15:38:40;;;;;;;3.60;1.40;;;;;;;;;;6187418;28;20344;-78
2023/02/28 15:41:46;;;;;;;2.93;1.27;;;;;;;;;;6187625;28;20301;-79
2023/02/28 15:44:52;;;;;;;1.97;1.00;;;;;;;;;;6186812;28;20496;-79
2023/02/28 15:47:58;;;;;;;3.03;1.10;;;;;;;;;;6186760;28;20301;-78
2023/02/28 15:51:19;;;;;;;1.20;1.17;;;;;;;;;;6187749;28;20300;-80
2023/02/28 15:54:28;;;;;;;1.20;1.10;;;;;;;;;;6204448;28;20292;-79
2023/02/28 15:57:33;;;;;;;1.90;1.30;;;;;;;;;;6187502;28;20308;-80
2023/02/28 16:00:39;;;;;;;1.90;1.20;;;;;;;;;;6186484;28;20315;-79
2023/02/28 16:03:47;;;;;;;2.50;1.10;;;;;;;;;;6158028;28;20294;-79
2023/02/28 16:07:03;;;;;;;1.00;1.00;;;;;;;;;;6140030;28;20305;-80
2023/02/28 16:10:10;;;;;;;2.53;1.10;;;;;;;;;;6157437;28;20292;-79
2023/02/28 16:13:15;;;;;;;0.90;0.90;;;;;;;;;;6177322;28;20297;-80
2023/02/28 16:16:25;;;;;;;6.70;1.00;;;;;;;;;;6162800;28;20336;-79
2023/02/28 16:19:30;;;;;;;3.03;1.03;;;;;;;;;;6161445;28;20583;-79
2023/02/28 16:22:38;;;;;;;2.10;1.40;;;;;;;;;;6162541;28;20268;-80
2023/02/28 16:25:45;;;;;;;1.83;1.10;;;;;;;;;;6177087;28;20365;-79
2023/02/28 16:28:52;;;;;;;2.43;1.20;;;;;;;;;;6161356;28;20577;-80
2023/02/28 16:31:58;;;;;;;1.03;1.00;;;;;;;;;;6162957;28;20589;-80
2023/02/28 16:35:04;;;;;;;1.30;1.30;;;;;;;;;;6161855;28;20304;-80
2023/02/28 16:38:09;;;;;;;1.00;1.00;;;;;;;;;;6162906;28;20300;-79
2023/02/28 16:41:18;;;;;;;1.13;1.10;;;;;;;;;;6162965;28;20299;-79
2023/02/28 16:44:29;;;;;;;1.10;1.10;;;;;;;;;;6162333;28;20305;-79
2023/02/28 16:47:35;;;;;;;1.33;1.27;;;;;;;;;;6162213;28;20620;-79
2023/02/28 16:50:41;;;;;;;1.20;1.20;;;;;;;;;;6162076;28;20579;-81
2023/02/28 16:53:46;;;;;;;1.53;1.40;;;;;;;;;;6176843;28;20287;-79
2023/02/28 16:56:51;;;;;;;1.63;1.20;;;;;;;;;;6162597;28;20576;-80
2023/02/28 16:59:57;;;;;;;1.00;1.00;;;;;;;;;;6162075;28;20503;-80
2023/02/28 17:03:04;;;;;;;0.90;0.90;;;;;;;;;;6178778;28;20607;-79
2023/02/28 17:06:19;;;;;;;1.80;1.00;;;;;;;;;;6186263;28;20296;-80
2023/02/28 17:09:26;;;;;;;1.00;1.00;;;;;;;;;;6185493;28;20291;-79
2023/02/28 17:12:45;;;;;;;2.10;1.10;;;;;;;;;;6161804;29;20405;-79
2023/02/28 17:15:50;;;;;;;1.17;1.17;;;;;;;;;;6144280;29;20299;-78
2023/02/28 17:19:00;;;;;;;1.10;1.10;;;;;;;;;;6177168;28;20317;-79
2023/02/28 17:22:05;;;;;;;1.10;1.00;;;;;;;;;;6161874;29;20320;-79
2023/02/28 17:25:12;;;;;;;1.67;1.10;;;;;;;;;;6161195;29;20308;-78
2023/02/28 17:28:17;;;;;;;1.20;1.20;;;;;;;;;;6161612;29;20299;-80
2023/02/28 17:31:22;;;;;;;1.07;1.07;;;;;;;;;;6161345;29;20299;-80
2023/02/28 17:34:29;;;;;;;1.10;1.10;;;;;;;;;;6159167;28;20299;-78
2023/02/28 17:37:34;;;;;;;2.00;1.47;;;;;;;;;;6161282;29;20307;-79
2023/02/28 17:40:39;;;;;;;1.10;1.10;;;;;;;;;;6161094;28;20303;-80
2023/02/28 17:43:44;;;;;;;4.00;1.40;;;;;;;;;;6160742;28;20309;-78
2023/02/28 17:46:50;;;;;;;2.50;1.30;;;;;;;;;;6162175;28;20338;-80
2023/02/28 17:49:56;;;;;;;2.53;1.47;;;;;;;;;;6165866;29;20305;-79
2023/02/28 17:53:01;;;;;;;4.53;1.10;;;;;;;;;;6165607;28;20366;-80
2023/02/28 17:56:09;;;;;;;1.40;1.30;;;;;;;;;;6166234;29;20604;-80
2023/02/28 17:59:15;;;;;;;1.20;1.20;;;;;;;;;;6165386;28;20297;-79
2023/02/28 18:02:20;;;;;;;1.10;1.10;;;;;;;;;;6165843;29;20587;-80
2023/02/28 18:05:28;;;;;;;1.23;1.20;;;;;;;;;;6164231;28;20300;-79
2023/02/28 18:08:35;;;;;;;1.93;1.20;;;;;;;;;;6165566;28;20312;-80
2023/02/28 18:11:43;;;;;;;1.33;1.00;;;;;;;;;;6189200;28;20299;-80
2023/02/28 18:14:48;;;;;;;1.17;1.17;;;;;;;;;;6189492;28;20303;-79
2023/02/28 18:17:54;;;;;;;4.33;1.00;;;;;;;;;;6188225;28;20298;-80
2023/02/28 18:21:02;;;;;;;1.13;1.13;;;;;;;;;;6190343;28;20314;-79
2023/02/28 18:24:07;;;;;;;4.30;1.10;;;;;;;;;;6188267;28;20322;-80
2023/02/28 18:27:14;;;;;;;1.43;1.20;;;;;;;;;;6189540;28;20306;-80
2023/02/28 18:30:20;;;;;;;1.23;0.90;;;;;;;;;;6171803;28;20506;-80
2023/02/28 18:33:26;;;;;;;1.27;1.27;;;;;;;;;;6188827;28;20370;-78
2023/02/28 18:36:32;;;;;;;3.93;1.03;;;;;;;;;;6189325;28;20306;-78
2023/02/28 18:39:37;;;;;;;4.80;0.90;;;;;;;;;;6189130;28;20295;-79
2023/02/28 18:42:43;;;;;;;0.90;0.90;;;;;;;;;;6189275;28;20299;-78
2023/02/28 18:45:48;;;;;;;3.70;0.93;;;;;;;;;;6189080;28;20600;-80
2023/02/28 18:48:54;;;;;;;1.00;1.00;;;;;;;;;;6171179;28;20294;-78
2023/02/28 18:52:00;;;;;;;2.23;1.33;;;;;;;;;;6189332;28;20295;-79